Time;durP1;ratioP1;P1;durP2;ratioP2;P2;SDS_P1;SDS_P2;PMS_P1;PMS_P2;Temp;Humidity;BMP_temperature;BMP_pressure;BME280_temperature;BME280_humidity;BME280_pressure;Samples;Min_cycle;Max_cycle;Signal;HPM_P1;HPM_P2
2022/08/10 00:00:21;;;;;;;4.40;3.10;;;16.30;99.90;;;;;;5033741;28;20042;-76
2022/08/10 00:02:52;;;;;;;4.88;3.10;;;16.30;99.90;;;;;;5033606;28;20114;-76
2022/08/10 00:05:18;;;;;;;4.20;3.15;;;16.20;99.90;;;;;;5016972;28;20490;-76
2022/08/10 00:07:44;;;;;;;5.13;3.28;;;16.20;99.90;;;;;;5000723;28;20037;-76
2022/08/10 00:10:13;;;;;;;3.70;3.28;;;16.20;99.90;;;;;;5016937;28;20045;-76
2022/08/10 00:12:39;;;;;;;4.05;3.20;;;16.20;99.90;;;;;;5016826;28;20064;-76
2022/08/10 00:15:06;;;;;;;3.90;3.45;;;16.20;99.90;;;;;;5015904;28;20138;-76
2022/08/10 00:17:32;;;;;;;4.35;3.20;;;16.20;99.90;;;;;;5032836;28;20049;-76
2022/08/10 00:19:57;;;;;;;3.67;3.22;;;16.20;99.90;;;;;;5032896;28;20183;-76
2022/08/10 00:22:23;;;;;;;4.80;3.22;;;16.20;99.90;;;;;;5016415;28;20034;-76
2022/08/10 00:24:49;;;;;;;5.43;3.42;;;16.10;99.90;;;;;;5016593;28;20042;-76
2022/08/10 00:27:14;;;;;;;4.05;3.13;;;16.10;99.90;;;;;;5016545;28;20127;-76
2022/08/10 00:29:40;;;;;;;3.90;3.25;;;16.10;99.90;;;;;;5032877;28;20052;-76
2022/08/10 00:32:06;;;;;;;4.75;3.28;;;16.10;99.90;;;;;;5016174;28;20428;-76
2022/08/10 00:34:33;;;;;;;4.43;3.58;;;16.10;99.90;;;;;;5016410;28;20095;-76
2022/08/10 00:37:00;;;;;;;5.10;3.72;;;16.10;99.90;;;;;;5032739;28;20088;-76
2022/08/10 00:39:27;;;;;;;4.45;3.53;;;16.00;99.90;;;;;;5032498;28;20100;-76
2022/08/10 00:41:53;;;;;;;3.90;3.40;;;16.00;99.90;;;;;;4983245;28;20057;-76
2022/08/10 00:44:19;;;;;;;4.68;3.78;;;16.00;99.90;;;;;;5015943;28;20054;-76
2022/08/10 00:46:45;;;;;;;4.30;3.90;;;16.00;99.90;;;;;;5015938;28;20034;-76
2022/08/10 00:49:12;;;;;;;4.93;4.22;;;16.00;99.90;;;;;;5032404;28;20095;-76
2022/08/10 00:51:37;;;;;;;5.47;3.72;;;16.00;99.90;;;;;;5032667;28;20087;-76
2022/08/10 00:54:03;;;;;;;4.80;3.67;;;16.00;99.90;;;;;;4999816;28;20037;-76
2022/08/10 00:56:29;;;;;;;4.20;3.80;;;16.00;99.90;;;;;;4999634;28;20048;-76
2022/08/10 00:58:55;;;;;;;4.13;3.72;;;16.00;99.90;;;;;;4999450;28;20041;-76
2022/08/10 01:01:20;;;;;;;4.40;3.67;;;16.00;99.90;;;;;;5032688;28;20038;-84
2022/08/10 01:03:46;;;;;;;4.88;4.07;;;16.00;99.90;;;;;;5018263;28;20042;-84
2022/08/10 01:06:24;;;;;;;4.28;3.88;;;15.90;99.90;;;;;;5034307;28;20440;-83
2022/08/10 01:09:16;;;;;;;4.05;3.67;;;15.90;99.90;;;;;;5018208;28;20095;-83
2022/08/10 01:11:45;;;;;;;5.35;4.10;;;15.90;99.90;;;;;;5034528;28;20091;-84
2022/08/10 01:14:20;;;;;;;4.93;4.00;;;15.90;99.90;;;;;;5032987;28;20042;-84
2022/08/10 01:16:56;;;;;;;5.13;4.63;;;15.80;99.90;;;;;;5018691;28;20050;-84
2022/08/10 01:19:48;;;;;;;5.13;4.63;;;15.80;99.90;;;;;;5034479;28;20517;-84
2022/08/10 01:23:04;;;;;;;5.07;4.57;;;15.70;99.90;;;;;;4986876;28;20046;-84
2022/08/10 01:25:56;;;;;;;5.55;4.85;;;15.70;99.90;;;;;;4977595;28;20104;-84
2022/08/10 01:28:40;;;;;;;6.22;5.38;;;15.60;99.90;;;;;;5033793;28;20044;-84
2022/08/10 01:31:07;;;;;;;5.95;5.20;;;15.50;99.90;;;;;;5034182;28;20094;-84
2022/08/10 01:33:45;;;;;;;5.75;5.05;;;15.50;99.90;;;;;;5017037;28;20042;-84
2022/08/10 01:36:22;;;;;;;5.88;5.18;;;15.40;99.90;;;;;;5033516;28;20041;-84
2022/08/10 01:38:50;;;;;;;6.75;5.60;;;15.40;99.90;;;;;;5033409;28;20051;-84
2022/08/10 01:41:26;;;;;;;7.30;6.00;;;15.40;99.90;;;;;;5017371;28;20117;-84
2022/08/10 01:44:02;;;;;;;7.75;6.10;;;15.40;99.90;;;;;;5017627;28;20045;-84
2022/08/10 01:46:29;;;;;;;6.63;5.90;;;15.30;99.90;;;;;;5016769;28;20168;-83
2022/08/10 01:48:59;;;;;;;7.85;6.07;;;15.30;99.90;;;;;;5033586;28;20485;-84
2022/08/10 01:51:53;;;;;;;7.20;5.82;;;15.20;99.90;;;;;;5017212;28;20103;-84
2022/08/10 01:54:21;;;;;;;6.80;6.10;;;15.30;99.90;;;;;;5014791;28;20053;-84
2022/08/10 01:56:54;;;;;;;6.30;5.70;;;15.30;99.90;;;;;;5016672;28;20045;-84
2022/08/10 01:59:29;;;;;;;11.23;6.38;;;15.30;99.90;;;;;;5032711;28;20072;-84
2022/08/10 02:02:23;;;;;;;8.52;6.28;;;15.50;99.90;;;;;;5032046;28;20041;-84
2022/08/10 02:04:52;;;;;;;8.60;6.28;;;15.30;99.90;;;;;;5014327;28;20045;-84
2022/08/10 02:07:20;;;;;;;7.93;7.03;;;15.20;99.90;;;;;;5018624;28;20069;-83
2022/08/10 02:09:49;;;;;;;8.25;6.30;;;15.20;99.90;;;;;;5033819;28;20119;-84
2022/08/10 02:12:20;;;;;;;7.00;6.30;;;15.10;99.90;;;;;;5032263;28;20131;-76
2022/08/10 02:14:50;;;;;;;7.32;6.40;;;15.10;99.90;;;;;;5015006;28;20045;-76
2022/08/10 02:17:19;;;;;;;7.43;6.22;;;15.10;99.90;;;;;;5031695;28;20052;-76
2022/08/10 02:19:47;;;;;;;7.90;6.55;;;15.00;99.90;;;;;;5031597;28;20076;-76
2022/08/10 02:22:15;;;;;;;7.28;6.32;;;15.00;99.90;;;;;;5015575;28;20076;-76
2022/08/10 02:24:42;;;;;;;8.65;6.95;;;15.00;99.90;;;;;;5015205;28;20034;-76
2022/08/10 02:27:11;;;;;;;9.40;6.72;;;15.00;99.90;;;;;;5015015;28;20052;-76
2022/08/10 02:29:39;;;;;;;6.88;6.07;;;15.00;99.90;;;;;;5015205;28;20359;-76
2022/08/10 02:32:06;;;;;;;8.05;6.90;;;15.00;99.90;;;;;;5015466;28;20378;-76
2022/08/10 02:34:33;;;;;;;9.18;6.45;;;15.00;99.90;;;;;;5014978;28;20049;-76
2022/08/10 02:37:02;;;;;;;8.23;6.65;;;14.90;99.90;;;;;;5015332;28;20065;-76
2022/08/10 02:39:29;;;;;;;7.10;6.20;;;14.90;99.90;;;;;;5017951;28;20493;-76
2022/08/10 02:42:04;;;;;;;7.82;7.00;;;14.90;99.90;;;;;;5035027;28;20104;-76
2022/08/10 02:44:44;;;;;;;7.68;6.82;;;14.90;99.90;;;;;;5018657;28;20440;-76
2022/08/10 02:47:22;;;;;;;8.40;6.50;;;14.80;99.90;;;;;;5018296;28;20037;-76
2022/08/10 02:49:56;;;;;;;7.68;6.82;;;14.80;99.90;;;;;;5018317;28;20033;-76
2022/08/10 02:52:29;;;;;;;8.80;7.90;;;14.80;99.90;;;;;;5034868;28;20116;-76
2022/08/10 02:55:01;;;;;;;10.30;7.57;;;14.80;99.90;;;;;;5034955;28;20037;-76
2022/08/10 02:57:32;;;;;;;8.40;7.25;;;14.80;99.90;;;;;;5018177;28;20049;-76
2022/08/10 03:00:03;;;;;;;8.57;7.45;;;14.80;99.90;;;;;;5018359;28;20042;-76
2022/08/10 03:02:45;;;;;;;10.40;8.07;;;14.70;99.90;;;;;;5034947;28;20099;-76
2022/08/10 03:05:13;;;;;;;9.65;8.55;;;14.80;99.90;;;;;;5017877;28;20128;-76
2022/08/10 03:07:59;;;;;;;9.10;8.10;;;14.70;99.90;;;;;;5034900;28;20429;-76
2022/08/10 03:10:26;;;;;;;;;;;14.70;99.90;;;;;;5035165;28;20124;-76
2022/08/10 03:12:58;;;;;;;10.30;7.90;;;14.70;99.90;;;;;;5018316;28;19925;-76
2022/08/10 03:15:26;;;;;;;8.95;7.63;;;14.70;99.90;;;;;;5018406;28;20379;-76
2022/08/10 03:17:53;;;;;;;10.00;7.50;;;14.70;99.90;;;;;;5017456;28;20049;-76
2022/08/10 03:20:20;;;;;;;11.43;8.30;;;14.70;99.90;;;;;;5034801;28;20390;-76
2022/08/10 03:22:49;;;;;;;9.57;8.40;;;14.70;99.90;;;;;;5017653;28;20041;-76
2022/08/10 03:25:17;;;;;;;11.00;9.13;;;14.70;99.90;;;;;;5034062;28;20038;-76
2022/08/10 03:27:43;;;;;;;10.15;8.57;;;14.60;99.90;;;;;;5017697;28;20107;-76
2022/08/10 03:30:10;;;;;;;11.80;8.65;;;14.70;99.90;;;;;;5017614;28;20110;-76
2022/08/10 03:32:36;;;;;;;12.05;8.95;;;14.60;99.90;;;;;;5017380;28;20034;-76
2022/08/10 03:35:04;;;;;;;9.48;8.48;;;14.60;99.90;;;;;;5017454;28;20045;-76
2022/08/10 03:37:30;;;;;;;11.57;8.48;;;14.60;99.90;;;;;;5001541;28;20053;-76
2022/08/10 03:39:56;;;;;;;9.50;8.38;;;14.60;99.90;;;;;;5001336;28;20501;-76
2022/08/10 03:42:24;;;;;;;11.38;8.52;;;14.60;99.90;;;;;;5033881;28;20088;-76
2022/08/10 03:44:52;;;;;;;8.65;7.57;;;14.60;99.90;;;;;;5033575;28;20050;-76
2022/08/10 03:47:20;;;;;;;10.15;8.48;;;14.50;99.90;;;;;;5034671;28;20084;-76
2022/08/10 03:49:50;;;;;;;10.40;8.82;;;14.50;99.90;;;;;;5017601;28;20045;-76
2022/08/10 03:52:17;;;;;;;10.45;8.85;;;14.60;99.90;;;;;;5001304;28;20044;-76
2022/08/10 03:54:44;;;;;;;10.35;9.25;;;14.50;99.90;;;;;;5033816;28;20149;-76
2022/08/10 03:57:11;;;;;;;11.13;9.27;;;14.50;99.90;;;;;;5001130;28;20041;-76
2022/08/10 03:59:37;;;;;;;10.88;9.20;;;14.50;99.90;;;;;;5033886;28;20140;-76
2022/08/10 04:02:06;;;;;;;12.07;9.75;;;14.50;99.90;;;;;;5033725;28;20045;-77
2022/08/10 04:04:32;;;;;;;12.02;9.65;;;14.40;99.90;;;;;;5033869;28;20045;-76
2022/08/10 04:06:59;;;;;;;10.30;9.20;;;14.50;99.90;;;;;;5017389;28;20095;-76
2022/08/10 04:09:34;;;;;;;14.40;9.77;;;14.40;99.90;;;;;;5017334;28;20473;-76
2022/08/10 04:12:00;;;;;;;11.57;9.88;;;14.40;99.90;;;;;;5033035;28;20478;-76
2022/08/10 04:14:26;;;;;;;12.35;9.80;;;14.40;99.90;;;;;;5017602;28;20057;-76
2022/08/10 04:16:52;;;;;;;13.00;9.55;;;14.40;99.90;;;;;;5001092;28;20053;-76
2022/08/10 04:19:19;;;;;;;12.38;10.70;;;14.40;99.90;;;;;;5016851;28;20165;-76
2022/08/10 04:22:03;;;;;;;13.18;9.55;;;14.40;99.90;;;;;;5016692;28;20053;-76
2022/08/10 04:24:32;;;;;;;14.07;9.98;;;14.40;99.90;;;;;;5016980;28;20041;-76
2022/08/10 04:26:59;;;;;;;12.35;9.98;;;14.40;99.90;;;;;;5033672;28;20037;-76
2022/08/10 04:29:25;;;;;;;12.52;10.57;;;14.40;99.90;;;;;;5033971;28;20042;-76
2022/08/10 04:31:52;;;;;;;11.75;10.48;;;14.40;99.90;;;;;;5016741;28;20052;-76
2022/08/10 04:34:19;;;;;;;11.90;10.02;;;14.40;99.90;;;;;;5001695;28;20044;-84
2022/08/10 04:36:48;;;;;;;12.07;9.77;;;14.40;99.90;;;;;;5035339;28;20335;-84
2022/08/10 04:39:14;;;;;;;13.57;10.32;;;14.40;99.90;;;;;;5035000;28;20052;-84
2022/08/10 04:41:40;;;;;;;13.25;10.25;;;14.40;99.90;;;;;;5035010;28;20041;-84
2022/08/10 04:44:06;;;;;;;11.52;10.32;;;14.40;99.90;;;;;;5034519;28;20148;-84
2022/08/10 04:46:33;;;;;;;13.27;10.25;;;14.50;99.90;;;;;;5002356;28;20045;-84
2022/08/10 04:48:59;;;;;;;12.65;10.23;;;14.40;99.90;;;;;;5034097;28;20041;-84
2022/08/10 04:51:25;;;;;;;15.00;10.80;;;14.50;99.90;;;;;;5034556;28;20044;-84
2022/08/10 04:53:51;;;;;;;12.10;10.25;;;14.50;99.90;;;;;;5018412;28;20474;-84
2022/08/10 04:56:17;;;;;;;11.40;9.25;;;14.50;99.90;;;;;;5034977;28;20041;-84
2022/08/10 04:58:42;;;;;;;14.43;10.43;;;14.50;99.90;;;;;;5002626;28;20562;-84
2022/08/10 05:01:08;;;;;;;16.25;10.48;;;14.50;99.90;;;;;;5035035;28;20080;-84
2022/08/10 05:03:34;;;;;;;12.43;10.13;;;14.50;99.90;;;;;;5001345;28;20504;-84
2022/08/10 05:06:00;;;;;;;13.82;10.50;;;14.50;99.90;;;;;;5017651;28;20111;-84
2022/08/10 05:08:25;;;;;;;11.98;10.27;;;14.50;99.90;;;;;;5001436;28;20037;-84
2022/08/10 05:10:52;;;;;;;12.18;10.40;;;14.50;99.90;;;;;;5034077;28;20044;-84
2022/08/10 05:13:17;;;;;;;15.23;10.02;;;14.50;99.90;;;;;;5017144;28;20037;-84
2022/08/10 05:15:44;;;;;;;13.35;10.23;;;14.50;99.90;;;;;;5017563;28;20132;-84
2022/08/10 05:18:11;;;;;;;13.25;10.88;;;14.60;99.90;;;;;;5017593;28;20124;-77
2022/08/10 05:20:37;;;;;;;16.05;11.27;;;14.60;99.90;;;;;;5016551;28;20046;-76
2022/08/10 05:23:03;;;;;;;15.02;10.77;;;14.60;99.90;;;;;;4983818;28;20041;-76
2022/08/10 05:25:29;;;;;;;17.45;10.57;;;14.60;99.90;;;;;;5015675;28;20106;-76
2022/08/10 05:27:55;;;;;;;17.30;10.50;;;14.70;99.90;;;;;;5016179;28;20452;-76
2022/08/10 05:30:21;;;;;;;14.40;10.75;;;14.80;99.90;;;;;;4998893;28;20041;-76
2022/08/10 05:32:48;;;;;;;21.60;11.57;;;14.80;99.90;;;;;;5031574;28;20124;-76
2022/08/10 05:35:14;;;;;;;17.40;11.45;;;14.80;99.90;;;;;;5031620;28;20055;-76
2022/08/10 05:37:41;;;;;;;15.77;10.85;;;14.90;99.90;;;;;;5015237;28;20042;-76
2022/08/10 05:40:07;;;;;;;16.20;11.00;;;14.90;99.90;;;;;;5031953;28;20064;-76
2022/08/10 05:42:33;;;;;;;18.50;11.07;;;14.90;99.90;;;;;;5031483;28;20448;-76
2022/08/10 05:44:59;;;;;;;16.17;10.82;;;15.00;99.90;;;;;;5031692;28;20061;-76
2022/08/10 05:47:25;;;;;;;13.98;10.60;;;15.10;99.90;;;;;;5032214;28;20401;-77
2022/08/10 05:49:51;;;;;;;14.65;10.55;;;15.20;99.90;;;;;;5032551;28;20042;-77
2022/08/10 05:52:18;;;;;;;13.32;10.27;;;15.20;99.90;;;;;;5016286;28;20037;-76
2022/08/10 05:54:45;;;;;;;18.02;11.05;;;15.20;99.90;;;;;;5016516;28;20071;-83
2022/08/10 05:57:14;;;;;;;15.35;9.98;;;15.20;99.90;;;;;;5017613;28;20042;-84
2022/08/10 05:59:45;;;;;;;11.07;9.90;;;15.30;99.90;;;;;;5016822;28;20047;-84
2022/08/10 06:02:32;;;;;;;16.08;10.00;;;15.40;99.90;;;;;;5033495;28;20052;-84
2022/08/10 06:04:59;;;;;;;;;;;15.50;99.90;;;;;;5017365;28;20042;-84
2022/08/10 06:07:27;;;;;;;11.65;9.20;;;15.50;99.90;;;;;;5017708;28;20003;-84
2022/08/10 06:09:55;;;;;;;10.73;9.38;;;15.60;99.90;;;;;;5034109;28;20092;-84
2022/08/10 06:12:26;;;;;;;13.82;9.68;;;15.70;99.90;;;;;;5017962;28;20044;-84
2022/08/10 06:15:02;;;;;;;9.90;8.70;;;15.70;99.90;;;;;;5037664;28;20041;-84
2022/08/10 06:17:29;;;;;;;13.88;9.30;;;15.80;99.90;;;;;;5039222;28;20045;-84
2022/08/10 06:19:59;;;;;;;10.88;8.68;;;15.90;99.90;;;;;;5021822;28;20041;-84
2022/08/10 06:22:26;;;;;;;14.25;9.38;;;16.00;99.90;;;;;;5038028;28;20045;-84
2022/08/10 06:24:54;;;;;;;12.02;8.98;;;16.00;99.90;;;;;;5038777;28;20033;-84
2022/08/10 06:27:20;;;;;;;13.90;8.57;;;16.10;99.90;;;;;;5021439;28;20041;-76
2022/08/10 06:29:47;;;;;;;10.45;8.43;;;16.20;99.90;;;;;;5036090;28;20091;-76
2022/08/10 06:32:15;;;;;;;12.32;8.23;;;16.30;99.90;;;;;;5036252;28;20037;-76
2022/08/10 06:34:52;;;;;;;12.68;8.32;;;16.40;99.90;;;;;;5036097;28;20390;-76
2022/08/10 06:37:23;;;;;;;9.15;8.20;;;16.50;99.90;;;;;;5020861;28;20088;-84
2022/08/10 06:39:48;;;;;;;10.63;7.82;;;16.60;99.90;;;;;;5038185;28;20147;-84
2022/08/10 06:42:38;;;;;;;10.60;7.45;;;16.70;99.90;;;;;;5004919;28;20557;-84
2022/08/10 06:45:08;;;;;;;9.13;7.75;;;16.90;99.90;;;;;;5020843;28;20056;-83
2022/08/10 06:48:01;;;;;;;8.20;6.95;;;17.00;99.90;;;;;;5037704;28;20393;-83
2022/08/10 06:50:37;;;;;;;8.23;6.93;;;17.40;99.90;;;;;;5021119;28;20409;-84
2022/08/10 06:53:10;;;;;;;9.15;6.75;;;18.00;99.90;;;;;;5037892;28;20049;-83
2022/08/10 06:55:39;;;;;;;8.20;6.35;;;18.40;99.90;;;;;;5035509;28;20037;-77
2022/08/10 06:58:07;;;;;;;6.50;5.50;;;18.90;99.90;;;;;;5019195;28;20068;-77
2022/08/10 07:00:37;;;;;;;6.55;5.40;;;19.40;99.90;;;;;;5018548;28;20080;-76
2022/08/10 07:03:08;;;;;;;9.43;5.90;;;19.90;99.90;;;;;;5018721;28;20120;-77
2022/08/10 07:05:39;;;;;;;5.55;4.93;;;20.20;99.90;;;;;;5034386;28;20056;-77
2022/08/10 07:08:06;;;;;;;9.68;5.18;;;20.50;99.90;;;;;;5017833;28;20029;-76
2022/08/10 07:10:32;;;;;;;8.75;4.85;;;20.80;99.90;;;;;;5001944;28;20060;-77
2022/08/10 07:12:59;;;;;;;7.13;4.72;;;21.00;99.90;;;;;;5001781;28;20073;-77
2022/08/10 07:15:26;;;;;;;6.93;5.25;;;21.30;99.90;;;;;;5018696;28;20041;-77
2022/08/10 07:17:53;;;;;;;8.00;4.70;;;21.40;99.90;;;;;;5034809;28;20621;-77
2022/08/10 07:20:20;;;;;;;5.95;4.60;;;21.60;99.90;;;;;;5017732;28;20037;-77
2022/08/10 07:22:51;;;;;;;7.45;4.75;;;21.90;99.90;;;;;;5034095;28;20037;-77
2022/08/10 07:25:21;;;;;;;6.10;4.70;;;22.00;99.90;;;;;;5017827;28;20474;-77
2022/08/10 07:27:48;;;;;;;6.88;5.07;;;22.00;99.90;;;;;;5034057;28;20042;-77
2022/08/10 07:30:14;;;;;;;8.35;4.43;;;22.00;99.90;;;;;;5018478;28;20590;-77
2022/08/10 07:32:43;;;;;;;6.43;4.80;;;22.00;99.90;;;;;;5018367;28;20042;-77
2022/08/10 07:35:15;;;;;;;5.00;4.30;;;22.10;99.90;;;;;;5017907;28;20041;-77
2022/08/10 07:37:45;;;;;;;4.68;4.28;;;22.10;99.90;;;;;;5017983;28;20099;-77
2022/08/10 07:40:13;;;;;;;5.95;4.50;;;22.20;99.90;;;;;;5018601;28;20556;-76
2022/08/10 07:42:42;;;;;;;7.30;4.72;;;22.30;99.90;;;;;;5034344;28;20064;-77
2022/08/10 07:45:09;;;;;;;5.68;4.82;;;22.40;99.90;;;;;;5033844;28;20404;-77
2022/08/10 07:47:40;;;;;;;6.55;5.13;;;22.40;99.90;;;;;;5000998;28;20037;-77
2022/08/10 07:50:09;;;;;;;6.20;4.65;;;22.40;99.90;;;;;;5033566;28;20033;-77
2022/08/10 07:52:38;;;;;;;7.53;4.93;;;22.40;99.90;;;;;;5017612;28;20030;-77
2022/08/10 07:55:06;;;;;;;11.38;5.03;;;22.40;99.90;;;;;;5017016;28;20516;-77
2022/08/10 07:57:34;;;;;;;6.35;4.63;;;22.50;99.90;;;;;;5000533;28;20128;-77
2022/08/10 08:00:10;;;;;;;6.72;3.90;;;22.50;99.90;;;;;;5034104;28;20041;-77
2022/08/10 08:02:44;;;;;;;5.43;4.47;;;22.60;99.90;;;;;;5017583;28;20458;-77
2022/08/10 08:05:12;;;;;;;7.57;4.55;;;22.70;99.90;;;;;;5033599;28;20048;-77
2022/08/10 08:07:39;;;;;;;7.28;4.50;;;22.70;99.90;;;;;;5033601;28;20064;-77
2022/08/10 08:10:07;;;;;;;6.65;5.05;;;22.80;99.90;;;;;;5016728;28;20502;-77
2022/08/10 08:12:34;;;;;;;5.97;3.85;;;22.80;99.90;;;;;;5016630;28;20042;-77
2022/08/10 08:15:02;;;;;;;4.43;3.53;;;22.90;99.90;;;;;;5033079;28;20056;-77
2022/08/10 08:17:30;;;;;;;8.57;4.25;;;22.90;99.90;;;;;;5000728;28;20037;-77
2022/08/10 08:19:58;;;;;;;5.82;4.07;;;23.00;99.90;;;;;;5000889;28;20052;-77
2022/08/10 08:22:26;;;;;;;4.70;3.88;;;22.90;99.90;;;;;;5017058;28;20042;-77
2022/08/10 08:24:55;;;;;;;6.00;4.15;;;23.00;99.90;;;;;;5017132;28;20148;-77
2022/08/10 08:27:23;;;;;;;10.98;3.85;;;23.00;99.90;;;;;;5016947;28;20050;-77
2022/08/10 08:29:50;;;;;;;5.68;3.88;;;22.90;99.90;;;;;;5033755;28;20041;-77
2022/08/10 08:32:21;;;;;;;7.68;4.43;;;22.90;99.90;;;;;;5016960;28;20045;-77
2022/08/10 08:34:51;;;;;;;6.93;4.50;;;22.90;99.90;;;;;;5033743;28;20037;-77
2022/08/10 08:37:19;;;;;;;6.18;3.97;;;22.80;99.90;;;;;;5032187;28;20490;-77
2022/08/10 08:39:46;;;;;;;6.47;3.60;;;22.70;99.90;;;;;;5016612;28;20048;-77
2022/08/10 08:42:44;;;;;;;3.60;3.15;;;22.80;99.90;;;;;;5016489;28;20065;-77
2022/08/10 08:45:37;;;;;;;9.75;3.53;;;22.90;99.90;;;;;;5016502;28;20053;-76
2022/08/10 08:48:40;;;;;;;7.80;3.65;;;22.90;99.90;;;;;;5016390;28;20049;-77
2022/08/10 08:51:47;;;;;;;7.05;3.15;;;23.00;99.90;;;;;;5034083;28;20045;-77
2022/08/10 08:54:32;;;;;;;7.47;3.33;;;23.10;99.90;;;;;;5016007;28;20103;-77
2022/08/10 08:57:06;;;;;;;7.15;2.90;;;23.10;99.90;;;;;;5015932;28;20049;-76
2022/08/10 08:59:57;;;;;;;7.68;3.40;;;23.10;99.90;;;;;;5032912;28;20046;-84
2022/08/10 09:02:49;;;;;;;6.28;3.05;;;23.20;99.90;;;;;;5032848;28;20049;-85
2022/08/10 09:05:21;;;;;;;5.68;3.70;;;23.20;99.90;;;;;;5033440;28;20041;-84
2022/08/10 09:08:16;;;;;;;5.35;3.30;;;23.10;99.90;;;;;;5036074;28;20045;-84
2022/08/10 09:10:56;;;;;;;4.45;2.50;;;23.20;99.90;;;;;;5008876;28;20037;-84
2022/08/10 09:13:51;;;;;;;6.35;3.05;;;23.20;99.90;;;;;;5035840;28;20041;-84
2022/08/10 09:16:29;;;;;;;2.88;2.42;;;23.30;99.90;;;;;;5036114;28;20052;-84
2022/08/10 09:19:16;;;;;;;5.05;2.80;;;23.30;99.90;;;;;;5019754;28;20128;-84
2022/08/10 09:21:47;;;;;;;3.28;2.22;;;23.40;99.90;;;;;;5035733;28;20201;-84
2022/08/10 09:24:21;;;;;;;6.55;2.10;;;23.50;99.90;;;;;;5019334;28;20052;-84
2022/08/10 09:26:52;;;;;;;6.28;2.17;;;23.60;99.90;;;;;;5035238;28;20037;-84
2022/08/10 09:29:31;;;;;;;4.45;2.40;;;23.70;99.90;;;;;;5034809;28;20124;-84
2022/08/10 09:32:10;;;;;;;5.38;2.35;;;23.80;99.90;;;;;;5034793;28;20568;-84
2022/08/10 09:34:53;;;;;;;3.67;1.98;;;23.90;99.90;;;;;;5034871;28;20061;-85
2022/08/10 09:37:24;;;;;;;3.38;2.42;;;24.00;99.90;;;;;;5018810;28;20076;-84
2022/08/10 09:39:58;;;;;;;4.25;2.17;;;24.20;99.90;;;;;;5015980;28;20056;-77
2022/08/10 09:42:41;;;;;;;5.35;2.28;;;24.30;99.90;;;;;;5032941;28;20061;-77
2022/08/10 09:45:29;;;;;;;4.38;1.90;;;24.30;99.90;;;;;;5032573;28;20088;-77
2022/08/10 09:48:14;;;;;;;5.15;1.98;;;24.30;99.90;;;;;;5020605;28;20041;-77
2022/08/10 09:50:52;;;;;;;4.13;1.75;;;24.40;99.90;;;;;;5038795;28;20116;-77
2022/08/10 09:53:34;;;;;;;3.67;1.80;;;24.40;99.90;;;;;;5038809;28;20049;-77
2022/08/10 09:56:15;;;;;;;2.80;1.63;;;24.40;99.90;;;;;;5021567;28;20057;-77
2022/08/10 09:59:07;;;;;;;4.00;1.65;;;24.40;99.90;;;;;;5021851;28;20128;-77
2022/08/10 10:01:50;;;;;;;5.20;1.60;;;24.50;98.40;;;;;;5036319;28;20494;-77
2022/08/10 10:04:24;;;;;;;4.13;1.75;;;24.50;98.20;;;;;;5038280;28;20045;-77
2022/08/10 10:06:53;;;;;;;6.10;1.83;;;24.50;98.90;;;;;;5022128;28;20041;-77
2022/08/10 10:09:50;;;;;;;6.30;1.98;;;24.40;98.50;;;;;;5038886;28;20425;-77
2022/08/10 10:12:28;;;;;;;3.08;1.50;;;24.40;98.40;;;;;;5021669;28;20033;-77
2022/08/10 10:15:34;;;;;;;6.03;1.60;;;24.40;97.90;;;;;;5038510;28;20057;-77
2022/08/10 10:18:23;;;;;;;3.10;1.58;;;24.50;97.50;;;;;;5022524;28;20045;-77
2022/08/10 10:20:59;;;;;;;3.85;1.38;;;24.40;96.00;;;;;;5040780;28;20493;-84
2022/08/10 10:23:50;;;;;;;4.28;1.50;;;24.50;96.20;;;;;;5024545;28;20511;-84
2022/08/10 10:26:35;;;;;;;2.08;1.30;;;24.50;96.40;;;;;;5021700;28;20045;-77
2022/08/10 10:29:13;;;;;;;3.45;1.52;;;24.50;95.90;;;;;;5038413;28;20041;-76
2022/08/10 10:31:51;;;;;;;4.82;1.45;;;24.60;95.80;;;;;;5021976;28;20421;-77
2022/08/10 10:34:34;;;;;;;4.50;1.33;;;24.60;95.60;;;;;;5040100;28;20502;-84
2022/08/10 10:37:01;;;;;;;2.97;1.60;;;24.60;94.50;;;;;;5040094;28;20044;-84
2022/08/10 10:39:29;;;;;;;3.25;1.67;;;24.60;94.90;;;;;;5008056;28;20044;-84
2022/08/10 10:42:20;;;;;;;3.25;1.45;;;24.60;94.70;;;;;;5040523;28;20489;-83
2022/08/10 10:44:58;;;;;;;6.15;1.70;;;24.70;94.60;;;;;;5024045;28;20045;-77
2022/08/10 10:47:45;;;;;;;3.20;1.38;;;24.70;94.20;;;;;;5038177;28;20124;-77
2022/08/10 10:50:12;;;;;;;9.82;1.40;;;24.70;94.40;;;;;;5021651;28;20037;-77
2022/08/10 10:53:00;;;;;;;4.55;1.50;;;24.70;93.90;;;;;;5022159;28;20037;-77
2022/08/10 10:55:42;;;;;;;3.67;1.48;;;24.80;94.00;;;;;;5037897;28;20045;-77
2022/08/10 10:58:22;;;;;;;4.35;1.80;;;24.80;93.30;;;;;;5020330;28;20037;-77
2022/08/10 11:01:13;;;;;;;3.60;1.30;;;24.80;92.40;;;;;;5035436;28;20073;-77
2022/08/10 11:04:05;;;;;;;3.58;1.50;;;24.90;92.70;;;;;;5034752;28;20135;-77
2022/08/10 11:06:56;;;;;;;3.33;1.35;;;24.90;92.60;;;;;;5034749;28;20045;-77
2022/08/10 11:09:56;;;;;;;3.63;1.33;;;24.90;92.00;;;;;;5018299;28;20084;-77
2022/08/10 11:12:37;;;;;;;4.10;1.45;;;25.00;92.40;;;;;;5031337;28;20084;-76
2022/08/10 11:15:20;;;;;;;2.60;1.40;;;25.00;91.90;;;;;;5018357;28;20045;-77
2022/08/10 11:18:24;;;;;;;3.33;1.35;;;25.00;91.70;;;;;;5035446;28;20049;-77
2022/08/10 11:21:11;;;;;;;8.05;1.80;;;25.00;91.30;;;;;;5026136;28;20081;-77
2022/08/10 11:23:45;;;;;;;3.30;1.38;;;25.00;91.30;;;;;;5018117;28;20428;-77
2022/08/10 11:26:35;;;;;;;3.28;1.38;;;25.10;90.60;;;;;;5034602;28;20045;-77
2022/08/10 11:29:33;;;;;;;5.80;1.73;;;25.10;90.50;;;;;;5017514;28;20496;-77
2022/08/10 11:32:31;;;;;;;3.53;1.33;;;25.20;90.20;;;;;;5034238;28;20049;-77
2022/08/10 11:35:21;;;;;;;3.22;1.48;;;25.20;89.30;;;;;;5018618;28;20488;-77
2022/08/10 11:38:05;;;;;;;2.45;1.58;;;25.20;87.60;;;;;;5034364;28;20052;-77
2022/08/10 11:40:51;;;;;;;6.30;1.63;;;25.30;89.20;;;;;;5017793;28;20087;-77
2022/08/10 11:43:21;;;;;;;3.47;1.30;;;25.30;88.50;;;;;;5017280;28;20064;-77
2022/08/10 11:46:10;;;;;;;3.78;1.70;;;25.40;89.00;;;;;;5018294;28;20053;-77
2022/08/10 11:48:55;;;;;;;2.72;1.35;;;25.40;88.70;;;;;;4991264;28;20045;-77
2022/08/10 11:51:35;;;;;;;3.70;1.50;;;25.50;89.80;;;;;;5034007;28;20454;-77
2022/08/10 11:54:23;;;;;;;2.92;1.17;;;25.50;86.20;;;;;;5017553;28;20079;-77
2022/08/10 11:56:52;;;;;;;6.85;1.58;;;25.50;87.20;;;;;;5034044;28;20068;-77
2022/08/10 12:02:11;;;;;;;5.18;1.63;;;25.70;85.90;;;;;;5035634;28;20118;-84
2022/08/10 12:04:40;;;;;;;3.47;1.40;;;25.80;84.20;;;;;;5036397;28;20048;-84
2022/08/10 12:07:08;;;;;;;2.78;1.30;;;25.80;84.40;;;;;;5036547;28;20097;-84
2022/08/10 12:09:36;;;;;;;3.45;1.20;;;25.90;84.40;;;;;;5018827;28;20049;-84
2022/08/10 12:12:02;;;;;;;5.95;1.30;;;25.80;83.50;;;;;;5034471;28;20535;-84
2022/08/10 12:14:49;;;;;;;1.45;0.88;;;25.90;84.00;;;;;;5035037;28;20124;-84
2022/08/10 12:17:25;;;;;;;2.22;1.00;;;25.90;81.40;;;;;;5035755;28;20060;-84
2022/08/10 12:20:09;;;;;;;2.22;1.38;;;26.00;80.10;;;;;;5019977;28;20052;-84
2022/08/10 12:22:47;;;;;;;2.53;1.13;;;26.10;80.50;;;;;;5019617;28;20498;-84
2022/08/10 12:25:20;;;;;;;2.67;1.27;;;26.20;80.30;;;;;;5035607;28;20375;-84
2022/08/10 12:27:51;;;;;;;2.78;1.25;;;26.20;79.30;;;;;;5036310;28;20390;-84
2022/08/10 12:30:28;;;;;;;4.05;1.40;;;26.30;79.10;;;;;;5034855;28;20033;-83
2022/08/10 12:33:20;;;;;;;4.07;1.20;;;26.30;79.70;;;;;;5035818;28;20371;-84
2022/08/10 12:35:59;;;;;;;2.17;1.20;;;26.40;79.10;;;;;;5017734;28;20128;-83
2022/08/10 12:38:34;;;;;;;2.55;1.30;;;26.50;79.20;;;;;;5033697;28;20512;-83
2022/08/10 12:41:04;;;;;;;2.73;1.17;;;26.60;78.60;;;;;;5018488;28;20067;-83
2022/08/10 12:43:38;;;;;;;2.65;1.20;;;26.70;78.00;;;;;;5018942;28;20694;-84
2022/08/10 12:46:37;;;;;;;3.30;1.25;;;26.70;78.20;;;;;;5035580;28;20041;-84
2022/08/10 12:49:31;;;;;;;3.60;1.50;;;26.90;79.00;;;;;;5035937;28;20040;-83
2022/08/10 12:52:10;;;;;;;1.65;1.23;;;27.10;78.40;;;;;;5034254;28;20140;-83
2022/08/10 12:54:37;;;;;;;3.67;1.00;;;27.30;75.70;;;;;;5036588;28;20037;-84
2022/08/10 12:57:08;;;;;;;2.00;1.33;;;27.70;74.80;;;;;;5036013;28;20088;-84
2022/08/10 12:59:39;;;;;;;2.15;1.20;;;28.10;75.40;;;;;;5035841;28;20048;-84
2022/08/10 13:02:07;;;;;;;4.35;1.40;;;28.60;76.30;;;;;;5018923;28;20041;-83
2022/08/10 13:04:39;;;;;;;3.15;1.10;;;29.00;76.00;;;;;;5035457;28;20049;-84
2022/08/10 13:07:06;;;;;;;4.18;1.40;;;29.40;73.20;;;;;;5035904;28;20046;-84
2022/08/10 13:09:33;;;;;;;3.88;1.52;;;29.90;75.00;;;;;;5019287;28;20046;-84
2022/08/10 13:12:10;;;;;;;2.38;1.20;;;30.30;73.50;;;;;;5035785;28;20144;-84
2022/08/10 13:14:45;;;;;;;5.40;1.40;;;30.60;71.90;;;;;;5035650;28;20042;-83
2022/08/10 13:17:12;;;;;;;2.95;1.60;;;30.90;70.40;;;;;;5019721;28;20073;-84